sensor_id;sensor_type;location;lat;lon;timestamp;P1;durP1;ratioP1;P2;durP2;ratioP2
12042;SDS011;6082;49.306;12.862;2022-09-23T00:00:29;4.27;;;2.13;;
12042;SDS011;6082;49.306;12.862;2022-09-23T00:02:59;2.70;;;2.17;;
12042;SDS011;6082;49.306;12.862;2022-09-23T00:05:28;3.27;;;2.23;;
12042;SDS011;6082;49.306;12.862;2022-09-23T00:07:54;3.47;;;2.73;;
12042;SDS011;6082;49.306;12.862;2022-09-23T00:10:21;2.57;;;2.10;;
12042;SDS011;6082;49.306;12.862;2022-09-23T00:12:47;3.97;;;2.70;;
12042;SDS011;6082;49.306;12.862;2022-09-23T00:15:13;2.97;;;2.43;;
12042;SDS011;6082;49.306;12.862;2022-09-23T00:17:40;3.10;;;2.30;;
12042;SDS011;6082;49.306;12.862;2022-09-23T00:20:06;4.67;;;2.90;;
12042;SDS011;6082;49.306;12.862;2022-09-23T00:22:35;3.37;;;2.30;;
12042;SDS011;6082;49.306;12.862;2022-09-23T00:25:05;3.50;;;2.90;;
12042;SDS011;6082;49.306;12.862;2022-09-23T00:27:33;3.53;;;2.30;;
12042;SDS011;6082;49.306;12.862;2022-09-23T00:30:00;4.07;;;2.37;;
12042;SDS011;6082;49.306;12.862;2022-09-23T00:32:26;2.67;;;2.20;;
12042;SDS011;6082;49.306;12.862;2022-09-23T00:34:52;3.20;;;2.40;;
12042;SDS011;6082;49.306;12.862;2022-09-23T00:37:19;3.13;;;2.10;;
12042;SDS011;6082;49.306;12.862;2022-09-23T00:39:46;2.97;;;2.20;;
12042;SDS011;6082;49.306;12.862;2022-09-23T00:42:16;2.57;;;2.37;;
12042;SDS011;6082;49.306;12.862;2022-09-23T00:49:46;2.83;;;2.00;;
12042;SDS011;6082;49.306;12.862;2022-09-23T00:52:15;3.13;;;2.20;;
12042;SDS011;6082;49.306;12.862;2022-09-23T00:54:42;2.63;;;2.23;;
12042;SDS011;6082;49.306;12.862;2022-09-23T00:57:10;2.77;;;2.40;;
12042;SDS011;6082;49.306;12.862;2022-09-23T00:59:36;2.50;;;1.87;;
12042;SDS011;6082;49.306;12.862;2022-09-23T01:02:03;3.40;;;2.30;;
12042;SDS011;6082;49.306;12.862;2022-09-23T01:04:29;2.73;;;2.10;;
12042;SDS011;6082;49.306;12.862;2022-09-23T01:06:55;4.23;;;2.43;;
12042;SDS011;6082;49.306;12.862;2022-09-23T01:09:21;2.47;;;1.90;;
12042;SDS011;6082;49.306;12.862;2022-09-23T01:11:55;3.07;;;1.93;;
12042;SDS011;6082;49.306;12.862;2022-09-23T01:16:58;3.93;;;2.33;;
12042;SDS011;6082;49.306;12.862;2022-09-23T01:33:05;3.10;;;2.23;;
12042;SDS011;6082;49.306;12.862;2022-09-23T01:43:13;2.47;;;2.03;;
12042;SDS011;6082;49.306;12.862;2022-09-23T01:45:42;2.37;;;2.00;;
12042;SDS011;6082;49.306;12.862;2022-09-23T01:50:45;2.33;;;1.70;;
12042;SDS011;6082;49.306;12.862;2022-09-23T01:55:49;2.43;;;1.83;;
12042;SDS011;6082;49.306;12.862;2022-09-23T01:58:21;3.27;;;2.17;;
12042;SDS011;6082;49.306;12.862;2022-09-23T02:00:51;2.77;;;2.10;;
12042;SDS011;6082;49.306;12.862;2022-09-23T02:03:23;2.27;;;1.70;;
12042;SDS011;6082;49.306;12.862;2022-09-23T02:06:35;4.30;;;2.23;;
12042;SDS011;6082;49.306;12.862;2022-09-23T02:08:41;2.47;;;1.97;;
12042;SDS011;6082;49.306;12.862;2022-09-23T02:11:13;2.33;;;2.00;;
12042;SDS011;6082;49.306;12.862;2022-09-23T02:16:24;3.53;;;2.20;;
12042;SDS011;6082;49.306;12.862;2022-09-23T02:21:28;2.67;;;2.43;;
12042;SDS011;6082;49.306;12.862;2022-09-23T02:23:56;3.10;;;2.07;;
12042;SDS011;6082;49.306;12.862;2022-09-23T02:28:59;3.10;;;2.73;;
12042;SDS011;6082;49.306;12.862;2022-09-23T02:34:15;3.07;;;2.17;;
12042;SDS011;6082;49.306;12.862;2022-09-23T02:37:01;4.40;;;2.17;;
12042;SDS011;6082;49.306;12.862;2022-09-23T02:39:34;4.30;;;2.50;;
12042;SDS011;6082;49.306;12.862;2022-09-23T02:42:04;5.03;;;2.50;;
12042;SDS011;6082;49.306;12.862;2022-09-23T02:44:31;4.80;;;2.20;;
12042;SDS011;6082;49.306;12.862;2022-09-23T02:46:58;3.57;;;2.20;;
12042;SDS011;6082;49.306;12.862;2022-09-23T02:49:25;4.30;;;2.73;;
12042;SDS011;6082;49.306;12.862;2022-09-23T02:51:54;3.37;;;2.33;;
12042;SDS011;6082;49.306;12.862;2022-09-23T02:54:22;3.13;;;2.23;;
12042;SDS011;6082;49.306;12.862;2022-09-23T02:56:49;3.80;;;2.47;;
12042;SDS011;6082;49.306;12.862;2022-09-23T02:59:17;3.40;;;2.63;;
12042;SDS011;6082;49.306;12.862;2022-09-23T03:01:54;3.20;;;2.43;;
12042;SDS011;6082;49.306;12.862;2022-09-23T03:09:42;2.80;;;2.20;;
12042;SDS011;6082;49.306;12.862;2022-09-23T03:14:43;2.87;;;2.07;;
12042;SDS011;6082;49.306;12.862;2022-09-23T03:17:16;4.77;;;2.53;;
12042;SDS011;6082;49.306;12.862;2022-09-23T03:24:45;3.20;;;2.27;;
12042;SDS011;6082;49.306;12.862;2022-09-23T03:27:13;2.93;;;2.00;;
12042;SDS011;6082;49.306;12.862;2022-09-23T03:29:43;2.50;;;1.80;;
12042;SDS011;6082;49.306;12.862;2022-09-23T03:32:11;3.10;;;2.13;;
12042;SDS011;6082;49.306;12.862;2022-09-23T03:34:38;1.93;;;1.67;;
12042;SDS011;6082;49.306;12.862;2022-09-23T03:39:56;2.10;;;1.90;;
12042;SDS011;6082;49.306;12.862;2022-09-23T03:42:25;2.37;;;1.97;;
12042;SDS011;6082;49.306;12.862;2022-09-23T03:44:52;2.33;;;1.70;;
12042;SDS011;6082;49.306;12.862;2022-09-23T03:47:20;2.17;;;1.40;;
12042;SDS011;6082;49.306;12.862;2022-09-23T03:49:47;2.23;;;1.83;;
12042;SDS011;6082;49.306;12.862;2022-09-23T03:52:23;3.03;;;1.67;;
12042;SDS011;6082;49.306;12.862;2022-09-23T03:54:49;2.67;;;2.07;;
12042;SDS011;6082;49.306;12.862;2022-09-23T03:57:16;2.17;;;1.77;;
12042;SDS011;6082;49.306;12.862;2022-09-23T03:59:42;2.93;;;1.77;;
12042;SDS011;6082;49.306;12.862;2022-09-23T04:02:08;6.03;;;2.23;;
12042;SDS011;6082;49.306;12.862;2022-09-23T04:04:36;2.47;;;1.90;;
12042;SDS011;6082;49.306;12.862;2022-09-23T04:07:03;1.83;;;1.60;;
12042;SDS011;6082;49.306;12.862;2022-09-23T04:09:29;3.73;;;1.67;;
12042;SDS011;6082;49.306;12.862;2022-09-23T04:11:55;4.10;;;2.50;;
12042;SDS011;6082;49.306;12.862;2022-09-23T04:14:21;3.33;;;2.40;;
12042;SDS011;6082;49.306;12.862;2022-09-23T04:16:48;6.17;;;4.10;;
12042;SDS011;6082;49.306;12.862;2022-09-23T04:19:14;6.13;;;3.40;;
12042;SDS011;6082;49.306;12.862;2022-09-23T04:21:41;5.53;;;3.10;;
12042;SDS011;6082;49.306;12.862;2022-09-23T04:24:07;2.73;;;2.17;;
12042;SDS011;6082;49.306;12.862;2022-09-23T04:26:35;4.33;;;2.87;;
12042;SDS011;6082;49.306;12.862;2022-09-23T04:29:02;2.87;;;2.40;;
12042;SDS011;6082;49.306;12.862;2022-09-23T04:31:29;3.97;;;2.73;;
12042;SDS011;6082;49.306;12.862;2022-09-23T04:33:55;2.60;;;2.07;;
12042;SDS011;6082;49.306;12.862;2022-09-23T04:36:22;2.67;;;2.10;;
12042;SDS011;6082;49.306;12.862;2022-09-23T04:38:48;3.67;;;2.53;;
12042;SDS011;6082;49.306;12.862;2022-09-23T04:41:15;4.30;;;2.93;;
12042;SDS011;6082;49.306;12.862;2022-09-23T04:43:41;5.43;;;2.83;;
12042;SDS011;6082;49.306;12.862;2022-09-23T04:46:08;5.77;;;3.07;;
12042;SDS011;6082;49.306;12.862;2022-09-23T04:48:35;4.97;;;3.13;;
12042;SDS011;6082;49.306;12.862;2022-09-23T04:51:02;6.70;;;3.23;;
12042;SDS011;6082;49.306;12.862;2022-09-23T04:53:29;3.43;;;2.70;;
12042;SDS011;6082;49.306;12.862;2022-09-23T04:56:03;3.47;;;2.40;;
12042;SDS011;6082;49.306;12.862;2022-09-23T04:58:29;3.07;;;1.93;;
12042;SDS011;6082;49.306;12.862;2022-09-23T05:00:56;3.70;;;2.57;;
12042;SDS011;6082;49.306;12.862;2022-09-23T05:03:23;5.93;;;3.17;;
12042;SDS011;6082;49.306;12.862;2022-09-23T05:05:49;4.87;;;3.43;;
12042;SDS011;6082;49.306;12.862;2022-09-23T05:08:19;4.47;;;2.83;;
12042;SDS011;6082;49.306;12.862;2022-09-23T05:10:46;4.10;;;3.07;;
12042;SDS011;6082;49.306;12.862;2022-09-23T05:13:12;5.13;;;2.80;;
12042;SDS011;6082;49.306;12.862;2022-09-23T05:15:38;3.50;;;2.43;;
12042;SDS011;6082;49.306;12.862;2022-09-23T05:18:04;3.10;;;2.33;;
12042;SDS011;6082;49.306;12.862;2022-09-23T05:20:30;3.07;;;2.23;;
12042;SDS011;6082;49.306;12.862;2022-09-23T05:22:56;2.17;;;1.63;;
12042;SDS011;6082;49.306;12.862;2022-09-23T05:25:22;3.90;;;2.70;;
12042;SDS011;6082;49.306;12.862;2022-09-23T05:27:48;4.23;;;2.83;;
12042;SDS011;6082;49.306;12.862;2022-09-23T05:30:14;3.07;;;2.30;;
12042;SDS011;6082;49.306;12.862;2022-09-23T05:32:40;4.40;;;2.97;;
12042;SDS011;6082;49.306;12.862;2022-09-23T05:35:07;3.70;;;2.53;;
12042;SDS011;6082;49.306;12.862;2022-09-23T05:37:33;4.23;;;2.43;;
12042;SDS011;6082;49.306;12.862;2022-09-23T05:39:59;2.90;;;2.47;;
12042;SDS011;6082;49.306;12.862;2022-09-23T05:42:25;2.67;;;2.43;;
12042;SDS011;6082;49.306;12.862;2022-09-23T05:44:52;4.43;;;2.73;;
12042;SDS011;6082;49.306;12.862;2022-09-23T05:47:18;2.87;;;2.30;;
12042;SDS011;6082;49.306;12.862;2022-09-23T05:49:44;5.37;;;2.90;;
12042;SDS011;6082;49.306;12.862;2022-09-23T05:52:10;4.27;;;2.57;;
12042;SDS011;6082;49.306;12.862;2022-09-23T05:54:36;5.03;;;2.60;;
12042;SDS011;6082;49.306;12.862;2022-09-23T05:57:02;5.00;;;3.53;;
12042;SDS011;6082;49.306;12.862;2022-09-23T05:59:30;6.27;;;3.50;;
12042;SDS011;6082;49.306;12.862;2022-09-23T06:01:56;4.63;;;3.07;;
12042;SDS011;6082;49.306;12.862;2022-09-23T06:04:22;3.40;;;2.67;;
12042;SDS011;6082;49.306;12.862;2022-09-23T06:06:49;4.33;;;3.13;;
12042;SDS011;6082;49.306;12.862;2022-09-23T06:09:17;5.93;;;3.57;;
12042;SDS011;6082;49.306;12.862;2022-09-23T06:11:43;3.07;;;2.70;;
12042;SDS011;6082;49.306;12.862;2022-09-23T06:14:11;3.80;;;2.90;;
12042;SDS011;6082;49.306;12.862;2022-09-23T06:16:39;4.33;;;3.00;;
12042;SDS011;6082;49.306;12.862;2022-09-23T06:19:05;3.80;;;3.03;;
12042;SDS011;6082;49.306;12.862;2022-09-23T06:21:32;3.63;;;2.60;;
12042;SDS011;6082;49.306;12.862;2022-09-23T06:23:59;5.30;;;2.87;;
12042;SDS011;6082;49.306;12.862;2022-09-23T06:26:26;4.43;;;3.10;;
12042;SDS011;6082;49.306;12.862;2022-09-23T06:28:54;3.33;;;2.87;;
12042;SDS011;6082;49.306;12.862;2022-09-23T06:31:21;3.07;;;2.40;;
12042;SDS011;6082;49.306;12.862;2022-09-23T06:33:48;7.70;;;2.83;;
12042;SDS011;6082;49.306;12.862;2022-09-23T06:36:14;3.03;;;2.63;;
12042;SDS011;6082;49.306;12.862;2022-09-23T06:38:40;4.07;;;3.13;;
12042;SDS011;6082;49.306;12.862;2022-09-23T06:41:08;4.57;;;3.47;;
12042;SDS011;6082;49.306;12.862;2022-09-23T06:43:35;4.20;;;3.07;;
12042;SDS011;6082;49.306;12.862;2022-09-23T06:46:02;4.47;;;2.90;;
12042;SDS011;6082;49.306;12.862;2022-09-23T06:48:29;3.83;;;3.20;;
12042;SDS011;6082;49.306;12.862;2022-09-23T06:50:58;6.40;;;3.23;;
12042;SDS011;6082;49.306;12.862;2022-09-23T06:53:27;4.47;;;3.03;;
12042;SDS011;6082;49.306;12.862;2022-09-23T06:55:59;4.23;;;3.60;;
12042;SDS011;6082;49.306;12.862;2022-09-23T06:58:26;4.70;;;2.83;;
12042;SDS011;6082;49.306;12.862;2022-09-23T07:00:53;5.00;;;3.67;;
12042;SDS011;6082;49.306;12.862;2022-09-23T07:03:19;4.97;;;3.77;;
12042;SDS011;6082;49.306;12.862;2022-09-23T07:05:46;5.33;;;3.63;;
12042;SDS011;6082;49.306;12.862;2022-09-23T07:08:12;4.47;;;3.83;;
12042;SDS011;6082;49.306;12.862;2022-09-23T07:10:38;7.60;;;4.23;;
12042;SDS011;6082;49.306;12.862;2022-09-23T07:13:04;7.50;;;5.00;;
12042;SDS011;6082;49.306;12.862;2022-09-23T07:15:30;7.23;;;4.70;;
12042;SDS011;6082;49.306;12.862;2022-09-23T07:17:57;5.90;;;4.20;;
12042;SDS011;6082;49.306;12.862;2022-09-23T07:20:23;5.83;;;4.57;;
12042;SDS011;6082;49.306;12.862;2022-09-23T07:22:50;10.83;;;7.27;;
12042;SDS011;6082;49.306;12.862;2022-09-23T07:25:17;7.37;;;4.83;;
12042;SDS011;6082;49.306;12.862;2022-09-23T07:27:43;6.83;;;4.80;;
12042;SDS011;6082;49.306;12.862;2022-09-23T07:30:11;5.90;;;4.37;;
12042;SDS011;6082;49.306;12.862;2022-09-23T07:32:38;6.77;;;4.67;;
12042;SDS011;6082;49.306;12.862;2022-09-23T07:35:05;5.80;;;4.00;;
12042;SDS011;6082;49.306;12.862;2022-09-23T07:37:31;5.03;;;3.97;;
12042;SDS011;6082;49.306;12.862;2022-09-23T07:39:57;6.30;;;3.90;;
12042;SDS011;6082;49.306;12.862;2022-09-23T07:42:23;6.17;;;3.53;;
12042;SDS011;6082;49.306;12.862;2022-09-23T07:44:49;6.63;;;4.37;;
12042;SDS011;6082;49.306;12.862;2022-09-23T07:47:17;6.40;;;4.20;;
12042;SDS011;6082;49.306;12.862;2022-09-23T07:49:43;8.37;;;6.00;;
12042;SDS011;6082;49.306;12.862;2022-09-23T07:52:09;7.63;;;5.03;;
12042;SDS011;6082;49.306;12.862;2022-09-23T07:54:35;7.40;;;5.53;;
12042;SDS011;6082;49.306;12.862;2022-09-23T07:57:01;7.03;;;5.87;;
12042;SDS011;6082;49.306;12.862;2022-09-23T07:59:27;8.80;;;5.10;;
12042;SDS011;6082;49.306;12.862;2022-09-23T08:01:53;7.40;;;5.50;;
12042;SDS011;6082;49.306;12.862;2022-09-23T08:04:27;7.40;;;6.20;;
12042;SDS011;6082;49.306;12.862;2022-09-23T08:06:54;7.83;;;5.70;;
12042;SDS011;6082;49.306;12.862;2022-09-23T08:09:23;11.67;;;6.80;;
12042;SDS011;6082;49.306;12.862;2022-09-23T08:11:50;10.30;;;6.60;;
12042;SDS011;6082;49.306;12.862;2022-09-23T08:14:16;14.80;;;9.17;;
12042;SDS011;6082;49.306;12.862;2022-09-23T08:16:43;15.27;;;8.77;;
12042;SDS011;6082;49.306;12.862;2022-09-23T08:19:10;13.43;;;8.57;;
12042;SDS011;6082;49.306;12.862;2022-09-23T08:21:37;10.57;;;7.47;;
12042;SDS011;6082;49.306;12.862;2022-09-23T08:24:03;12.67;;;8.03;;
12042;SDS011;6082;49.306;12.862;2022-09-23T08:26:29;11.30;;;7.70;;
12042;SDS011;6082;49.306;12.862;2022-09-23T08:28:58;11.13;;;7.20;;
12042;SDS011;6082;49.306;12.862;2022-09-23T08:31:24;9.80;;;6.93;;
12042;SDS011;6082;49.306;12.862;2022-09-23T08:33:54;8.70;;;7.00;;
12042;SDS011;6082;49.306;12.862;2022-09-23T08:36:20;10.93;;;6.50;;
12042;SDS011;6082;49.306;12.862;2022-09-23T08:38:47;9.93;;;6.27;;
12042;SDS011;6082;49.306;12.862;2022-09-23T08:43:49;10.07;;;6.53;;
12042;SDS011;6082;49.306;12.862;2022-09-23T08:46:19;9.40;;;6.50;;
12042;SDS011;6082;49.306;12.862;2022-09-23T08:48:46;11.10;;;7.13;;
12042;SDS011;6082;49.306;12.862;2022-09-23T08:51:14;10.90;;;7.17;;
12042;SDS011;6082;49.306;12.862;2022-09-23T08:53:42;12.07;;;6.93;;
12042;SDS011;6082;49.306;12.862;2022-09-23T08:56:12;8.80;;;6.53;;
12042;SDS011;6082;49.306;12.862;2022-09-23T09:03:54;9.20;;;6.40;;
12042;SDS011;6082;49.306;12.862;2022-09-23T09:08:59;10.00;;;7.27;;
12042;SDS011;6082;49.306;12.862;2022-09-23T09:11:28;9.77;;;7.10;;
12042;SDS011;6082;49.306;12.862;2022-09-23T09:14:42;8.67;;;6.97;;
12042;SDS011;6082;49.306;12.862;2022-09-23T09:19:20;9.30;;;6.50;;
12042;SDS011;6082;49.306;12.862;2022-09-23T09:21:50;8.80;;;6.47;;
12042;SDS011;6082;49.306;12.862;2022-09-23T09:24:30;8.60;;;6.17;;
12042;SDS011;6082;49.306;12.862;2022-09-23T09:26:57;8.23;;;6.27;;
12042;SDS011;6082;49.306;12.862;2022-09-23T09:29:25;7.83;;;5.90;;
12042;SDS011;6082;49.306;12.862;2022-09-23T09:31:52;9.00;;;5.73;;
12042;SDS011;6082;49.306;12.862;2022-09-23T09:34:36;8.97;;;6.10;;
12042;SDS011;6082;49.306;12.862;2022-09-23T09:37:16;8.53;;;5.70;;
12042;SDS011;6082;49.306;12.862;2022-09-23T09:39:43;8.27;;;5.50;;
12042;SDS011;6082;49.306;12.862;2022-09-23T09:42:12;7.13;;;4.87;;
12042;SDS011;6082;49.306;12.862;2022-09-23T09:44:42;4.93;;;4.13;;
12042;SDS011;6082;49.306;12.862;2022-09-23T09:54:37;5.70;;;4.43;;
12042;SDS011;6082;49.306;12.862;2022-09-23T09:57:04;5.43;;;4.17;;
12042;SDS011;6082;49.306;12.862;2022-09-23T09:59:30;8.43;;;4.97;;
12042;SDS011;6082;49.306;12.862;2022-09-23T10:04:42;4.90;;;4.27;;
12042;SDS011;6082;49.306;12.862;2022-09-23T10:07:12;6.27;;;4.90;;
12042;SDS011;6082;49.306;12.862;2022-09-23T10:09:40;5.57;;;4.60;;
12042;SDS011;6082;49.306;12.862;2022-09-23T10:12:13;5.07;;;4.20;;
12042;SDS011;6082;49.306;12.862;2022-09-23T10:14:43;7.60;;;4.10;;
12042;SDS011;6082;49.306;12.862;2022-09-23T10:17:19;3.80;;;3.40;;
12042;SDS011;6082;49.306;12.862;2022-09-23T10:19:46;5.37;;;4.10;;
12042;SDS011;6082;49.306;12.862;2022-09-23T10:22:23;4.30;;;3.70;;
12042;SDS011;6082;49.306;12.862;2022-09-23T10:24:51;4.27;;;3.53;;
12042;SDS011;6082;49.306;12.862;2022-09-23T10:27:26;4.43;;;2.90;;
12042;SDS011;6082;49.306;12.862;2022-09-23T10:29:55;3.77;;;2.70;;
12042;SDS011;6082;49.306;12.862;2022-09-23T10:32:32;5.80;;;2.30;;
12042;SDS011;6082;49.306;12.862;2022-09-23T10:39:52;2.70;;;1.90;;
12042;SDS011;6082;49.306;12.862;2022-09-23T10:45:40;2.33;;;2.10;;
12042;SDS011;6082;49.306;12.862;2022-09-23T10:50:54;3.17;;;2.00;;
12042;SDS011;6082;49.306;12.862;2022-09-23T11:01:27;3.07;;;1.87;;
12042;SDS011;6082;49.306;12.862;2022-09-23T11:06:38;3.47;;;1.80;;
12042;SDS011;6082;49.306;12.862;2022-09-23T11:09:25;3.53;;;1.90;;
12042;SDS011;6082;49.306;12.862;2022-09-23T11:14:34;3.90;;;1.93;;
12042;SDS011;6082;49.306;12.862;2022-09-23T11:17:17;2.33;;;1.80;;
12042;SDS011;6082;49.306;12.862;2022-09-23T11:27:52;1.40;;;1.27;;
12042;SDS011;6082;49.306;12.862;2022-09-23T11:30:21;2.00;;;1.80;;
12042;SDS011;6082;49.306;12.862;2022-09-23T11:33:07;1.90;;;1.70;;
12042;SDS011;6082;49.306;12.862;2022-09-23T11:35:57;2.00;;;1.53;;
12042;SDS011;6082;49.306;12.862;2022-09-23T11:38:26;1.60;;;1.43;;
12042;SDS011;6082;49.306;12.862;2022-09-23T11:40:57;1.70;;;1.50;;
12042;SDS011;6082;49.306;12.862;2022-09-23T11:43:25;1.67;;;1.53;;
12042;SDS011;6082;49.306;12.862;2022-09-23T11:45:59;2.37;;;1.60;;
12042;SDS011;6082;49.306;12.862;2022-09-23T11:51:11;1.70;;;1.47;;
12042;SDS011;6082;49.306;12.862;2022-09-23T11:53:40;1.77;;;1.67;;
12042;SDS011;6082;49.306;12.862;2022-09-23T11:58:36;1.67;;;1.57;;
12042;SDS011;6082;49.306;12.862;2022-09-23T12:01:12;1.93;;;1.77;;
12042;SDS011;6082;49.306;12.862;2022-09-23T12:03:46;1.60;;;1.50;;
12042;SDS011;6082;49.306;12.862;2022-09-23T12:06:16;2.33;;;1.47;;
12042;SDS011;6082;49.306;12.862;2022-09-23T12:08:44;1.93;;;1.70;;
12042;SDS011;6082;49.306;12.862;2022-09-23T12:26:30;2.27;;;1.90;;
12042;SDS011;6082;49.306;12.862;2022-09-23T12:29:01;2.77;;;1.53;;
12042;SDS011;6082;49.306;12.862;2022-09-23T12:31:28;2.57;;;2.10;;
12042;SDS011;6082;49.306;12.862;2022-09-23T12:33:55;4.00;;;2.30;;
12042;SDS011;6082;49.306;12.862;2022-09-23T12:36:30;2.60;;;2.10;;
12042;SDS011;6082;49.306;12.862;2022-09-23T12:46:43;1.87;;;1.40;;
12042;SDS011;6082;49.306;12.862;2022-09-23T12:54:38;1.67;;;1.57;;
12042;SDS011;6082;49.306;12.862;2022-09-23T12:57:08;2.27;;;1.60;;
12042;SDS011;6082;49.306;12.862;2022-09-23T13:02:32;1.80;;;1.47;;
12042;SDS011;6082;49.306;12.862;2022-09-23T13:07:45;2.20;;;2.00;;
12042;SDS011;6082;49.306;12.862;2022-09-23T13:10:28;2.27;;;1.80;;
12042;SDS011;6082;49.306;12.862;2022-09-23T13:12:56;1.73;;;1.40;;
12042;SDS011;6082;49.306;12.862;2022-09-23T13:17:53;2.30;;;1.73;;
12042;SDS011;6082;49.306;12.862;2022-09-23T13:20:38;3.77;;;2.10;;
12042;SDS011;6082;49.306;12.862;2022-09-23T13:25:40;2.80;;;1.67;;
12042;SDS011;6082;49.306;12.862;2022-09-23T13:28:12;2.00;;;1.70;;
12042;SDS011;6082;49.306;12.862;2022-09-23T13:30:48;2.13;;;1.80;;
12042;SDS011;6082;49.306;12.862;2022-09-23T13:33:18;2.93;;;1.83;;
12042;SDS011;6082;49.306;12.862;2022-09-23T13:35:50;3.03;;;2.20;;
12042;SDS011;6082;49.306;12.862;2022-09-23T13:38:19;2.93;;;2.20;;
12042;SDS011;6082;49.306;12.862;2022-09-23T13:40:49;2.67;;;1.90;;
12042;SDS011;6082;49.306;12.862;2022-09-23T13:43:22;2.33;;;1.90;;
12042;SDS011;6082;49.306;12.862;2022-09-23T13:45:50;2.63;;;2.00;;
12042;SDS011;6082;49.306;12.862;2022-09-23T13:48:17;2.27;;;1.77;;
12042;SDS011;6082;49.306;12.862;2022-09-23T13:50:48;1.83;;;1.73;;
12042;SDS011;6082;49.306;12.862;2022-09-23T13:53:22;2.73;;;1.70;;
12042;SDS011;6082;49.306;12.862;2022-09-23T13:58:31;2.23;;;1.93;;
12042;SDS011;6082;49.306;12.862;2022-09-23T14:00:58;2.10;;;1.90;;
12042;SDS011;6082;49.306;12.862;2022-09-23T14:03:30;2.00;;;1.80;;
12042;SDS011;6082;49.306;12.862;2022-09-23T14:05:57;2.80;;;2.10;;
12042;SDS011;6082;49.306;12.862;2022-09-23T14:08:24;3.17;;;1.80;;
12042;SDS011;6082;49.306;12.862;2022-09-23T14:10:50;1.97;;;1.77;;
12042;SDS011;6082;49.306;12.862;2022-09-23T14:13:39;1.77;;;1.67;;
12042;SDS011;6082;49.306;12.862;2022-09-23T14:16:07;1.90;;;1.80;;
12042;SDS011;6082;49.306;12.862;2022-09-23T14:18:47;2.20;;;1.90;;
12042;SDS011;6082;49.306;12.862;2022-09-23T14:21:33;2.27;;;1.83;;
12042;SDS011;6082;49.306;12.862;2022-09-23T14:26:35;2.27;;;2.07;;
12042;SDS011;6082;49.306;12.862;2022-09-23T14:29:02;2.00;;;1.80;;
12042;SDS011;6082;49.306;12.862;2022-09-23T14:31:28;2.67;;;2.20;;
12042;SDS011;6082;49.306;12.862;2022-09-23T14:33:56;2.27;;;2.00;;
12042;SDS011;6082;49.306;12.862;2022-09-23T14:36:22;2.47;;;2.27;;
12042;SDS011;6082;49.306;12.862;2022-09-23T14:39:08;2.20;;;2.00;;
12042;SDS011;6082;49.306;12.862;2022-09-23T14:41:41;2.33;;;2.07;;
12042;SDS011;6082;49.306;12.862;2022-09-23T14:44:22;2.77;;;2.10;;
12042;SDS011;6082;49.306;12.862;2022-09-23T14:46:53;1.80;;;1.70;;
12042;SDS011;6082;49.306;12.862;2022-09-23T14:49:20;2.17;;;1.97;;
12042;SDS011;6082;49.306;12.862;2022-09-23T14:51:53;2.30;;;1.90;;
12042;SDS011;6082;49.306;12.862;2022-09-23T14:54:21;1.67;;;1.57;;
12042;SDS011;6082;49.306;12.862;2022-09-23T14:56:50;2.30;;;1.90;;
12042;SDS011;6082;49.306;12.862;2022-09-23T14:59:24;1.50;;;1.40;;
12042;SDS011;6082;49.306;12.862;2022-09-23T15:01:51;2.13;;;1.50;;
12042;SDS011;6082;49.306;12.862;2022-09-23T15:09:20;1.60;;;1.20;;
12042;SDS011;6082;49.306;12.862;2022-09-23T15:11:49;1.40;;;1.23;;
12042;SDS011;6082;49.306;12.862;2022-09-23T15:14:16;2.33;;;1.73;;
12042;SDS011;6082;49.306;12.862;2022-09-23T15:16:43;4.83;;;2.90;;
12042;SDS011;6082;49.306;12.862;2022-09-23T15:19:14;2.20;;;1.67;;
12042;SDS011;6082;49.306;12.862;2022-09-23T15:21:42;2.30;;;1.70;;
12042;SDS011;6082;49.306;12.862;2022-09-23T15:26:54;5.20;;;2.30;;
12042;SDS011;6082;49.306;12.862;2022-09-23T15:29:24;5.10;;;2.20;;
12042;SDS011;6082;49.306;12.862;2022-09-23T15:31:51;5.07;;;2.97;;
12042;SDS011;6082;49.306;12.862;2022-09-23T15:34:17;3.00;;;2.43;;
12042;SDS011;6082;49.306;12.862;2022-09-23T15:36:44;3.70;;;2.20;;
12042;SDS011;6082;49.306;12.862;2022-09-23T15:39:11;2.73;;;1.90;;
12042;SDS011;6082;49.306;12.862;2022-09-23T15:41:37;1.80;;;1.40;;
12042;SDS011;6082;49.306;12.862;2022-09-23T15:44:10;3.13;;;2.33;;
12042;SDS011;6082;49.306;12.862;2022-09-23T15:46:37;2.57;;;1.50;;
12042;SDS011;6082;49.306;12.862;2022-09-23T15:51:50;2.00;;;1.80;;
12042;SDS011;6082;49.306;12.862;2022-09-23T15:54:16;3.90;;;1.53;;
12042;SDS011;6082;49.306;12.862;2022-09-23T15:56:43;3.20;;;2.70;;
12042;SDS011;6082;49.306;12.862;2022-09-23T15:59:09;4.40;;;2.77;;
12042;SDS011;6082;49.306;12.862;2022-09-23T16:01:36;3.50;;;2.70;;
12042;SDS011;6082;49.306;12.862;2022-09-23T16:04:03;2.53;;;1.70;;
12042;SDS011;6082;49.306;12.862;2022-09-23T16:06:30;2.70;;;1.80;;
12042;SDS011;6082;49.306;12.862;2022-09-23T16:08:56;1.67;;;1.50;;
12042;SDS011;6082;49.306;12.862;2022-09-23T16:11:24;2.77;;;2.03;;
12042;SDS011;6082;49.306;12.862;2022-09-23T16:13:51;2.10;;;1.73;;
12042;SDS011;6082;49.306;12.862;2022-09-23T16:16:17;2.27;;;1.90;;
12042;SDS011;6082;49.306;12.862;2022-09-23T16:18:46;2.67;;;2.30;;
12042;SDS011;6082;49.306;12.862;2022-09-23T16:21:15;7.17;;;3.90;;
12042;SDS011;6082;49.306;12.862;2022-09-23T16:23:43;9.33;;;5.63;;
12042;SDS011;6082;49.306;12.862;2022-09-23T16:29:16;38.20;;;21.23;;
12042;SDS011;6082;49.306;12.862;2022-09-23T16:31:42;27.03;;;15.13;;
12042;SDS011;6082;49.306;12.862;2022-09-23T16:34:08;24.93;;;16.20;;
12042;SDS011;6082;49.306;12.862;2022-09-23T16:36:37;10.70;;;7.37;;
12042;SDS011;6082;49.306;12.862;2022-09-23T16:39:05;10.40;;;5.37;;
12042;SDS011;6082;49.306;12.862;2022-09-23T16:41:32;6.93;;;4.33;;
12042;SDS011;6082;49.306;12.862;2022-09-23T16:43:58;5.23;;;3.70;;
12042;SDS011;6082;49.306;12.862;2022-09-23T16:46:25;4.80;;;3.30;;
12042;SDS011;6082;49.306;12.862;2022-09-23T16:48:51;5.83;;;3.43;;
12042;SDS011;6082;49.306;12.862;2022-09-23T16:51:20;4.70;;;3.10;;
12042;SDS011;6082;49.306;12.862;2022-09-23T16:53:47;4.17;;;2.73;;
12042;SDS011;6082;49.306;12.862;2022-09-23T16:56:13;2.60;;;2.23;;
12042;SDS011;6082;49.306;12.862;2022-09-23T16:58:41;2.20;;;2.00;;
12042;SDS011;6082;49.306;12.862;2022-09-23T17:01:08;1.50;;;1.40;;
12042;SDS011;6082;49.306;12.862;2022-09-23T17:03:55;1.87;;;1.70;;
12042;SDS011;6082;49.306;12.862;2022-09-23T17:06:21;3.47;;;2.20;;
12042;SDS011;6082;49.306;12.862;2022-09-23T17:08:49;2.10;;;1.70;;
12042;SDS011;6082;49.306;12.862;2022-09-23T17:11:15;2.43;;;1.90;;
12042;SDS011;6082;49.306;12.862;2022-09-23T17:13:42;2.00;;;1.60;;
12042;SDS011;6082;49.306;12.862;2022-09-23T17:16:23;1.83;;;1.63;;
12042;SDS011;6082;49.306;12.862;2022-09-23T17:18:49;4.87;;;2.23;;
12042;SDS011;6082;49.306;12.862;2022-09-23T17:21:15;2.57;;;2.10;;
12042;SDS011;6082;49.306;12.862;2022-09-23T17:23:42;1.73;;;1.40;;
12042;SDS011;6082;49.306;12.862;2022-09-23T17:26:08;2.13;;;1.60;;
12042;SDS011;6082;49.306;12.862;2022-09-23T17:28:36;2.30;;;1.90;;
12042;SDS011;6082;49.306;12.862;2022-09-23T17:31:03;2.23;;;1.93;;
12042;SDS011;6082;49.306;12.862;2022-09-23T17:33:30;2.50;;;1.90;;
12042;SDS011;6082;49.306;12.862;2022-09-23T17:35:57;3.30;;;1.67;;
12042;SDS011;6082;49.306;12.862;2022-09-23T17:38:24;3.87;;;1.70;;
12042;SDS011;6082;49.306;12.862;2022-09-23T17:40:51;3.50;;;1.80;;
12042;SDS011;6082;49.306;12.862;2022-09-23T17:43:18;3.17;;;1.87;;
12042;SDS011;6082;49.306;12.862;2022-09-23T17:45:49;2.17;;;1.87;;
12042;SDS011;6082;49.306;12.862;2022-09-23T17:48:15;1.90;;;1.70;;
12042;SDS011;6082;49.306;12.862;2022-09-23T17:50:54;3.40;;;2.00;;
12042;SDS011;6082;49.306;12.862;2022-09-23T17:53:20;1.77;;;1.50;;
12042;SDS011;6082;49.306;12.862;2022-09-23T17:55:53;2.70;;;2.20;;